sensor_id;sensor_type;location;lat;lon;timestamp;pressure;altitude;pressure_sealevel;temperature;humidity
46430;BME280;32131;53.454;-6.180;2023-07-30T00:02:08;100363.38;;;14.55;84.04
46430;BME280;32131;53.454;-6.180;2023-07-30T00:04:36;100367.66;;;14.61;83.69
46430;BME280;32131;53.454;-6.180;2023-07-30T00:07:09;100366.78;;;14.68;83.58
46430;BME280;32131;53.454;-6.180;2023-07-30T00:09:38;100371.03;;;14.75;83.15
46430;BME280;32131;53.454;-6.180;2023-07-30T00:12:08;100366.69;;;14.79;82.91
46430;BME280;32131;53.454;-6.180;2023-07-30T00:14:38;100359.78;;;14.80;82.88
46430;BME280;32131;53.454;-6.180;2023-07-30T00:17:06;100368.44;;;14.78;82.98
46430;BME280;32131;53.454;-6.180;2023-07-30T00:19:42;100359.72;;;14.83;82.48
46430;BME280;32131;53.454;-6.180;2023-07-30T00:22:10;100360.66;;;14.77;82.68
46430;BME280;32131;53.454;-6.180;2023-07-30T00:24:40;100366.72;;;14.77;82.64
46430;BME280;32131;53.454;-6.180;2023-07-30T00:27:08;100365.00;;;14.73;82.79
46430;BME280;32131;53.454;-6.180;2023-07-30T00:29:40;100361.59;;;14.68;83.03
46430;BME280;32131;53.454;-6.180;2023-07-30T00:32:10;100374.56;;;14.63;83.25
46430;BME280;32131;53.454;-6.180;2023-07-30T00:34:42;100385.00;;;14.59;83.43
46430;BME280;32131;53.454;-6.180;2023-07-30T00:37:12;100379.84;;;14.53;83.64
46430;BME280;32131;53.454;-6.180;2023-07-30T00:39:42;100379.88;;;14.51;83.88
46430;BME280;32131;53.454;-6.180;2023-07-30T00:42:12;100378.97;;;14.54;83.57
46430;BME280;32131;53.454;-6.180;2023-07-30T00:44:45;100372.03;;;14.57;83.74
46430;BME280;32131;53.454;-6.180;2023-07-30T00:47:13;100372.84;;;14.62;83.56
46430;BME280;32131;53.454;-6.180;2023-07-30T00:49:41;100375.44;;;14.64;83.62
46430;BME280;32131;53.454;-6.180;2023-07-30T00:52:10;100372.84;;;14.66;83.51
46430;BME280;32131;53.454;-6.180;2023-07-30T00:54:42;100384.09;;;14.69;83.40
46430;BME280;32131;53.454;-6.180;2023-07-30T00:57:11;100381.47;;;14.71;83.22
46430;BME280;32131;53.454;-6.180;2023-07-30T00:59:45;100376.25;;;14.75;83.12
46430;BME280;32131;53.454;-6.180;2023-07-30T01:02:17;100382.31;;;14.77;83.01
46430;BME280;32131;53.454;-6.180;2023-07-30T01:04:46;100382.28;;;14.79;83.09
46430;BME280;32131;53.454;-6.180;2023-07-30T01:07:15;100386.59;;;14.82;82.94
46430;BME280;32131;53.454;-6.180;2023-07-30T01:09:44;100395.25;;;14.82;82.95
46430;BME280;32131;53.454;-6.180;2023-07-30T01:12:13;100403.03;;;14.84;82.87
46430;BME280;32131;53.454;-6.180;2023-07-30T01:14:47;100390.97;;;14.80;83.05
46430;BME280;32131;53.454;-6.180;2023-07-30T01:17:16;100384.91;;;14.74;83.18
46430;BME280;32131;53.454;-6.180;2023-07-30T01:19:47;100385.84;;;14.67;83.60
46430;BME280;32131;53.454;-6.180;2023-07-30T01:22:22;100384.09;;;14.66;83.71
46430;BME280;32131;53.454;-6.180;2023-07-30T01:24:53;100380.66;;;14.58;83.66
46430;BME280;32131;53.454;-6.180;2023-07-30T01:27:25;100390.22;;;14.54;84.28
46430;BME280;32131;53.454;-6.180;2023-07-30T01:30:00;100394.53;;;14.57;84.26
46430;BME280;32131;53.454;-6.180;2023-07-30T01:32:33;100395.38;;;14.62;84.05
46430;BME280;32131;53.454;-6.180;2023-07-30T01:35:02;100396.22;;;14.64;84.27
46430;BME280;32131;53.454;-6.180;2023-07-30T01:37:35;100404.88;;;14.69;83.96
46430;BME280;32131;53.454;-6.180;2023-07-30T01:40:08;100392.72;;;14.74;83.82
46430;BME280;32131;53.454;-6.180;2023-07-30T01:42:36;100410.03;;;14.75;83.65
46430;BME280;32131;53.454;-6.180;2023-07-30T01:45:07;100390.97;;;14.76;83.69
46430;BME280;32131;53.454;-6.180;2023-07-30T01:47:36;100397.91;;;14.77;83.72
46430;BME280;32131;53.454;-6.180;2023-07-30T01:50:05;100397.03;;;14.75;83.64
46430;BME280;32131;53.454;-6.180;2023-07-30T01:52:36;100404.00;;;14.72;84.54
46430;BME280;32131;53.454;-6.180;2023-07-30T01:55:05;100400.53;;;14.70;84.27
46430;BME280;32131;53.454;-6.180;2023-07-30T01:57:33;100406.59;;;14.66;84.49
46430;BME280;32131;53.454;-6.180;2023-07-30T02:00:02;100401.47;;;14.56;84.87
46430;BME280;32131;53.454;-6.180;2023-07-30T02:02:33;100415.34;;;14.51;85.03
46430;BME280;32131;53.454;-6.180;2023-07-30T02:05:02;100417.09;;;14.47;85.33
46430;BME280;32131;53.454;-6.180;2023-07-30T02:07:32;100416.25;;;14.43;85.54
46430;BME280;32131;53.454;-6.180;2023-07-30T02:10:03;100418.03;;;14.40;85.79
46430;BME280;32131;53.454;-6.180;2023-07-30T02:12:31;100414.56;;;14.39;85.93
46430;BME280;32131;53.454;-6.180;2023-07-30T02:14:59;100408.50;;;14.39;85.68
46430;BME280;32131;53.454;-6.180;2023-07-30T02:17:27;100428.44;;;14.35;85.90
46430;BME280;32131;53.454;-6.180;2023-07-30T02:19:56;100428.41;;;14.37;86.10
46430;BME280;32131;53.454;-6.180;2023-07-30T02:22:25;100423.22;;;14.40;86.18
46430;BME280;32131;53.454;-6.180;2023-07-30T02:24:53;100432.75;;;14.39;86.29
46430;BME280;32131;53.454;-6.180;2023-07-30T02:27:25;100434.50;;;14.37;86.42
46430;BME280;32131;53.454;-6.180;2023-07-30T02:29:53;100436.25;;;14.34;86.63
46430;BME280;32131;53.454;-6.180;2023-07-30T02:32:22;100451.81;;;14.35;86.93
46430;BME280;32131;53.454;-6.180;2023-07-30T02:34:51;100447.47;;;14.37;87.16
46430;BME280;32131;53.454;-6.180;2023-07-30T02:37:19;100441.38;;;14.41;87.32
46430;BME280;32131;53.454;-6.180;2023-07-30T02:39:47;100443.09;;;14.44;87.41
46430;BME280;32131;53.454;-6.180;2023-07-30T02:42:15;100444.84;;;14.40;87.91
46430;BME280;32131;53.454;-6.180;2023-07-30T02:44:46;100446.59;;;14.40;88.15
46430;BME280;32131;53.454;-6.180;2023-07-30T02:47:15;100446.59;;;14.38;88.41
46430;BME280;32131;53.454;-6.180;2023-07-30T02:49:44;100443.16;;;14.33;88.73
46430;BME280;32131;53.454;-6.180;2023-07-30T02:52:17;100453.56;;;14.30;89.20
46430;BME280;32131;53.454;-6.180;2023-07-30T02:54:46;100448.38;;;14.27;89.60
46430;BME280;32131;53.454;-6.180;2023-07-30T02:57:17;100443.19;;;14.24;89.65
46430;BME280;32131;53.454;-6.180;2023-07-30T02:59:47;100450.97;;;14.24;89.88
46430;BME280;32131;53.454;-6.180;2023-07-30T03:02:16;100450.13;;;14.25;89.91
46430;BME280;32131;53.454;-6.180;2023-07-30T03:04:47;100464.84;;;14.24;89.87
46430;BME280;32131;53.454;-6.180;2023-07-30T03:07:17;100460.50;;;14.20;90.05
46430;BME280;32131;53.454;-6.180;2023-07-30T03:09:45;100450.16;;;14.19;90.09
46430;BME280;32131;53.454;-6.180;2023-07-30T03:12:14;100442.34;;;14.15;90.34
46430;BME280;32131;53.454;-6.180;2023-07-30T03:14:42;100445.81;;;14.14;90.40
46430;BME280;32131;53.454;-6.180;2023-07-30T03:17:12;100443.25;;;14.16;90.49
46430;BME280;32131;53.454;-6.180;2023-07-30T03:19:42;100444.06;;;14.21;90.46
46430;BME280;32131;53.454;-6.180;2023-07-30T03:22:11;100446.69;;;14.23;90.45
46430;BME280;32131;53.454;-6.180;2023-07-30T03:24:39;100439.75;;;14.22;90.56
46430;BME280;32131;53.454;-6.180;2023-07-30T03:27:07;100443.19;;;14.22;90.75
46430;BME280;32131;53.454;-6.180;2023-07-30T03:29:35;100451.00;;;14.21;90.83
46430;BME280;32131;53.454;-6.180;2023-07-30T03:32:07;100463.97;;;14.24;90.86
46430;BME280;32131;53.454;-6.180;2023-07-30T03:34:38;100458.78;;;14.24;90.53
46430;BME280;32131;53.454;-6.180;2023-07-30T03:37:07;100471.75;;;14.25;90.76
46430;BME280;32131;53.454;-6.180;2023-07-30T03:39:36;100458.75;;;14.27;90.55
46430;BME280;32131;53.454;-6.180;2023-07-30T03:42:05;100464.78;;;14.32;90.21
46430;BME280;32131;53.454;-6.180;2023-07-30T03:44:34;100471.72;;;14.36;90.00
46430;BME280;32131;53.454;-6.180;2023-07-30T03:47:03;100468.22;;;14.40;89.64
46430;BME280;32131;53.454;-6.180;2023-07-30T03:49:32;100474.28;;;14.42;89.56
46430;BME280;32131;53.454;-6.180;2023-07-30T03:52:02;100470.81;;;14.40;89.71
46430;BME280;32131;53.454;-6.180;2023-07-30T03:54:43;100480.34;;;14.40;90.50
46430;BME280;32131;53.454;-6.180;2023-07-30T03:57:12;100482.97;;;14.32;91.39
46430;BME280;32131;53.454;-6.180;2023-07-30T03:59:41;100488.19;;;14.26;92.09
46430;BME280;32131;53.454;-6.180;2023-07-30T04:02:09;100484.75;;;14.21;92.11
46430;BME280;32131;53.454;-6.180;2023-07-30T04:04:42;100486.50;;;14.15;92.49
46430;BME280;32131;53.454;-6.180;2023-07-30T04:07:12;100496.91;;;14.14;92.72
46430;BME280;32131;53.454;-6.180;2023-07-30T04:09:41;100493.44;;;14.13;92.86
46430;BME280;32131;53.454;-6.180;2023-07-30T04:12:12;100495.16;;;14.16;92.69
46430;BME280;32131;53.454;-6.180;2023-07-30T04:14:40;100490.81;;;14.21;92.39
46430;BME280;32131;53.454;-6.180;2023-07-30T04:17:09;100496.88;;;14.23;92.23
46430;BME280;32131;53.454;-6.180;2023-07-30T04:19:37;100495.13;;;14.27;92.03
46430;BME280;32131;53.454;-6.180;2023-07-30T04:22:06;100494.28;;;14.20;92.00
46430;BME280;32131;53.454;-6.180;2023-07-30T04:24:35;100493.44;;;14.10;92.20
46430;BME280;32131;53.454;-6.180;2023-07-30T04:27:04;100499.53;;;14.03;92.61
46430;BME280;32131;53.454;-6.180;2023-07-30T04:29:32;100501.25;;;13.98;92.69
46430;BME280;32131;53.454;-6.180;2023-07-30T04:32:00;100503.00;;;13.97;92.76
46430;BME280;32131;53.454;-6.180;2023-07-30T04:34:32;100503.88;;;13.99;92.63
46430;BME280;32131;53.454;-6.180;2023-07-30T04:37:00;100502.13;;;14.03;92.48
46430;BME280;32131;53.454;-6.180;2023-07-30T04:39:29;100512.47;;;14.11;92.23
46430;BME280;32131;53.454;-6.180;2023-07-30T04:42:02;100516.81;;;14.15;91.75
46430;BME280;32131;53.454;-6.180;2023-07-30T04:44:32;100512.47;;;14.22;91.29
46430;BME280;32131;53.454;-6.180;2023-07-30T04:47:00;100513.28;;;14.24;90.94
46430;BME280;32131;53.454;-6.180;2023-07-30T04:49:29;100518.50;;;14.27;90.83
46430;BME280;32131;53.454;-6.180;2023-07-30T04:51:59;100518.50;;;14.30;90.44
46430;BME280;32131;53.454;-6.180;2023-07-30T04:54:27;100514.13;;;14.32;90.19
46430;BME280;32131;53.454;-6.180;2023-07-30T04:56:56;100521.91;;;14.37;89.87
46430;BME280;32131;53.454;-6.180;2023-07-30T04:59:25;100513.25;;;14.42;89.76
46430;BME280;32131;53.454;-6.180;2023-07-30T05:01:56;100515.84;;;14.45;89.34
46430;BME280;32131;53.454;-6.180;2023-07-30T05:04:25;100521.88;;;14.49;88.93
46430;BME280;32131;53.454;-6.180;2023-07-30T05:06:53;100516.66;;;14.51;88.64
46430;BME280;32131;53.454;-6.180;2023-07-30T05:09:21;100527.06;;;14.51;88.56
46430;BME280;32131;53.454;-6.180;2023-07-30T05:11:49;100531.38;;;14.53;88.17
46430;BME280;32131;53.454;-6.180;2023-07-30T05:14:17;100528.78;;;14.56;88.10
46430;BME280;32131;53.454;-6.180;2023-07-30T05:16:49;100533.94;;;14.62;87.79
46430;BME280;32131;53.454;-6.180;2023-07-30T05:19:17;100532.22;;;14.66;87.38
46430;BME280;32131;53.454;-6.180;2023-07-30T05:21:46;100525.28;;;14.67;87.21
46430;BME280;32131;53.454;-6.180;2023-07-30T05:24:14;100528.75;;;14.67;87.11
46430;BME280;32131;53.454;-6.180;2023-07-30T05:26:43;100520.06;;;14.73;86.86
46430;BME280;32131;53.454;-6.180;2023-07-30T05:29:12;100525.25;;;14.73;86.56
46430;BME280;32131;53.454;-6.180;2023-07-30T05:31:40;100527.00;;;14.74;86.28
46430;BME280;32131;53.454;-6.180;2023-07-30T05:34:15;100531.28;;;14.78;86.03
46430;BME280;32131;53.454;-6.180;2023-07-30T05:36:44;100535.63;;;14.77;85.98
46430;BME280;32131;53.454;-6.180;2023-07-30T05:39:15;100539.09;;;14.78;85.76
46430;BME280;32131;53.454;-6.180;2023-07-30T05:41:43;100541.69;;;14.73;85.89
46430;BME280;32131;53.454;-6.180;2023-07-30T05:44:13;100537.38;;;14.71;85.84
46430;BME280;32131;53.454;-6.180;2023-07-30T05:46:41;100539.09;;;14.73;85.83
46430;BME280;32131;53.454;-6.180;2023-07-30T05:49:16;100543.44;;;14.77;85.58
46430;BME280;32131;53.454;-6.180;2023-07-30T05:51:45;100537.31;;;14.86;85.36
46430;BME280;32131;53.454;-6.180;2023-07-30T05:54:13;100549.41;;;14.93;84.94
46430;BME280;32131;53.454;-6.180;2023-07-30T05:56:41;100551.97;;;15.01;84.65
46430;BME280;32131;53.454;-6.180;2023-07-30T05:59:12;100549.34;;;15.04;84.32
46430;BME280;32131;53.454;-6.180;2023-07-30T06:01:46;100534.59;;;15.05;84.30
46430;BME280;32131;53.454;-6.180;2023-07-30T06:04:17;100558.84;;;15.15;83.99
46430;BME280;32131;53.454;-6.180;2023-07-30T06:06:45;100574.28;;;15.36;83.32
46430;BME280;32131;53.454;-6.180;2023-07-30T06:09:16;100568.94;;;15.55;82.44
46430;BME280;32131;53.454;-6.180;2023-07-30T06:11:44;100568.03;;;15.61;82.45
46430;BME280;32131;53.454;-6.180;2023-07-30T06:14:12;100573.19;;;15.64;82.05
46430;BME280;32131;53.454;-6.180;2023-07-30T06:16:42;100575.00;;;15.55;81.89
46430;BME280;32131;53.454;-6.180;2023-07-30T06:19:16;100569.84;;;15.51;81.62
46430;BME280;32131;53.454;-6.180;2023-07-30T06:21:44;100566.34;;;15.55;81.73
46430;BME280;32131;53.454;-6.180;2023-07-30T06:24:12;100568.88;;;15.64;81.48
46430;BME280;32131;53.454;-6.180;2023-07-30T06:26:41;100561.09;;;15.61;81.58
46430;BME280;32131;53.454;-6.180;2023-07-30T06:29:09;100561.91;;;15.68;81.46
46430;BME280;32131;53.454;-6.180;2023-07-30T06:31:37;100574.84;;;15.74;81.28
46430;BME280;32131;53.454;-6.180;2023-07-30T06:34:12;100560.94;;;15.77;81.29
46430;BME280;32131;53.454;-6.180;2023-07-30T06:36:42;100571.31;;;15.81;81.44
46430;BME280;32131;53.454;-6.180;2023-07-30T06:39:11;100575.66;;;15.84;80.85
46430;BME280;32131;53.454;-6.180;2023-07-30T06:41:41;100572.16;;;15.90;80.53
46430;BME280;32131;53.454;-6.180;2023-07-30T06:44:15;100572.88;;;16.04;80.28
46430;BME280;32131;53.454;-6.180;2023-07-30T06:46:43;100561.53;;;16.10;79.78
46430;BME280;32131;53.454;-6.180;2023-07-30T06:50:52;100565.09;;;15.99;79.59
46430;BME280;32131;53.454;-6.180;2023-07-30T06:52:42;100566.09;;;15.83;80.07
46430;BME280;32131;53.454;-6.180;2023-07-30T06:55:11;100564.44;;;15.77;80.04
46430;BME280;32131;53.454;-6.180;2023-07-30T06:57:41;100562.66;;;15.85;80.22
46430;BME280;32131;53.454;-6.180;2023-07-30T07:00:18;100561.63;;;16.00;79.77
46430;BME280;32131;53.454;-6.180;2023-07-30T07:02:54;100559.84;;;16.07;79.61
46430;BME280;32131;53.454;-6.180;2023-07-30T07:08:32;100566.50;;;16.33;78.51
46430;BME280;32131;53.454;-6.180;2023-07-30T07:11:01;100576.59;;;16.62;77.62
46430;BME280;32131;53.454;-6.180;2023-07-30T07:13:29;100581.47;;;16.90;76.30
46430;BME280;32131;53.454;-6.180;2023-07-30T07:15:57;100589.88;;;17.11;75.58
46430;BME280;32131;53.454;-6.180;2023-07-30T07:18:26;100588.91;;;17.20;74.95
46430;BME280;32131;53.454;-6.180;2023-07-30T07:20:54;100591.50;;;17.21;74.29
46430;BME280;32131;53.454;-6.180;2023-07-30T07:23:23;100587.19;;;17.19;73.63
46430;BME280;32131;53.454;-6.180;2023-07-30T07:25:52;100596.69;;;17.24;73.28
46430;BME280;32131;53.454;-6.180;2023-07-30T07:28:21;100587.84;;;17.33;72.91
46430;BME280;32131;53.454;-6.180;2023-07-30T07:30:49;100593.06;;;17.33;72.25
46430;BME280;32131;53.454;-6.180;2023-07-30T07:33:18;100595.69;;;17.32;71.84
46430;BME280;32131;53.454;-6.180;2023-07-30T07:35:47;100593.09;;;17.32;71.86
46430;BME280;32131;53.454;-6.180;2023-07-30T07:38:16;100595.69;;;17.30;71.79
46430;BME280;32131;53.454;-6.180;2023-07-30T07:40:44;100594.88;;;17.26;71.84
46430;BME280;32131;53.454;-6.180;2023-07-30T07:43:14;100595.63;;;17.36;71.61
46430;BME280;32131;53.454;-6.180;2023-07-30T07:45:42;100604.66;;;17.70;70.81
46430;BME280;32131;53.454;-6.180;2023-07-30T07:48:10;100607.72;;;17.98;69.74
46430;BME280;32131;53.454;-6.180;2023-07-30T07:50:41;100604.88;;;18.11;69.21
46430;BME280;32131;53.454;-6.180;2023-07-30T07:53:10;100601.78;;;18.37;67.94
46430;BME280;32131;53.454;-6.180;2023-07-30T07:55:38;100593.97;;;18.79;66.71
46430;BME280;32131;53.454;-6.180;2023-07-30T07:58:07;100598.34;;;19.20;65.04
46430;BME280;32131;53.454;-6.180;2023-07-30T08:00:37;100596.00;;;19.46;64.48
46430;BME280;32131;53.454;-6.180;2023-07-30T08:03:08;100592.22;;;19.60;63.55
46430;BME280;32131;53.454;-6.180;2023-07-30T08:05:37;100598.25;;;19.62;63.34
46430;BME280;32131;53.454;-6.180;2023-07-30T08:08:05;100597.34;;;19.63;62.89
46430;BME280;32131;53.454;-6.180;2023-07-30T08:10:41;100598.78;;;19.76;62.70
46430;BME280;32131;53.454;-6.180;2023-07-30T08:13:10;100589.88;;;19.84;62.25
46430;BME280;32131;53.454;-6.180;2023-07-30T08:15:40;100587.25;;;19.85;61.54
46430;BME280;32131;53.454;-6.180;2023-07-30T08:18:10;100592.59;;;19.79;61.68
46430;BME280;32131;53.454;-6.180;2023-07-30T08:20:38;100592.97;;;20.00;61.36
46430;BME280;32131;53.454;-6.180;2023-07-30T08:23:07;100596.88;;;19.85;61.25
46430;BME280;32131;53.454;-6.180;2023-07-30T08:25:36;100600.66;;;19.71;61.62
46430;BME280;32131;53.454;-6.180;2023-07-30T08:28:07;100601.53;;;19.70;61.36
46430;BME280;32131;53.454;-6.180;2023-07-30T08:30:36;100601.41;;;19.76;60.58
46430;BME280;32131;53.454;-6.180;2023-07-30T08:33:06;100584.53;;;20.53;59.05
46430;BME280;32131;53.454;-6.180;2023-07-30T08:35:37;100593.44;;;21.09;57.44
46430;BME280;32131;53.454;-6.180;2023-07-30T08:38:05;100596.75;;;21.44;56.30
46430;BME280;32131;53.454;-6.180;2023-07-30T08:40:35;100601.69;;;21.81;55.73
46430;BME280;32131;53.454;-6.180;2023-07-30T08:43:06;100595.63;;;22.30;53.74
46430;BME280;32131;53.454;-6.180;2023-07-30T08:45:35;100595.84;;;22.49;53.86
46430;BME280;32131;53.454;-6.180;2023-07-30T08:48:05;100583.50;;;22.51;52.84
46430;BME280;32131;53.454;-6.180;2023-07-30T08:50:34;100593.38;;;22.44;53.06
46430;BME280;32131;53.454;-6.180;2023-07-30T08:53:03;100595.81;;;21.98;53.01
46430;BME280;32131;53.454;-6.180;2023-07-30T08:55:33;100602.66;;;21.77;53.71
46430;BME280;32131;53.454;-6.180;2023-07-30T08:58:02;100589.00;;;21.93;53.50
46430;BME280;32131;53.454;-6.180;2023-07-30T09:00:49;100593.28;;;21.95;53.15
46430;BME280;32131;53.454;-6.180;2023-07-30T09:03:20;100584.06;;;21.83;53.37
46430;BME280;32131;53.454;-6.180;2023-07-30T09:05:51;100597.72;;;21.68;53.50
46430;BME280;32131;53.454;-6.180;2023-07-30T09:08:21;100593.34;;;21.69;53.16
46430;BME280;32131;53.454;-6.180;2023-07-30T09:10:50;100593.50;;;21.89;52.58
46430;BME280;32131;53.454;-6.180;2023-07-30T09:13:22;100591.44;;;21.99;52.06
46430;BME280;32131;53.454;-6.180;2023-07-30T09:15:50;100598.28;;;21.78;51.81
46430;BME280;32131;53.454;-6.180;2023-07-30T09:18:21;100600.28;;;21.43;51.90
46430;BME280;32131;53.454;-6.180;2023-07-30T09:20:49;100596.03;;;21.10;52.92
46430;BME280;32131;53.454;-6.180;2023-07-30T09:23:18;100603.81;;;20.83;53.85
46430;BME280;32131;53.454;-6.180;2023-07-30T09:25:48;100600.13;;;20.59;54.61
46430;BME280;32131;53.454;-6.180;2023-07-30T09:28:18;100596.09;;;20.47;54.88
46430;BME280;32131;53.454;-6.180;2023-07-30T09:30:49;100605.59;;;20.18;55.50
46430;BME280;32131;53.454;-6.180;2023-07-30T09:33:21;100609.22;;;19.78;56.47
46430;BME280;32131;53.454;-6.180;2023-07-30T09:35:50;100611.72;;;19.46;57.55
46430;BME280;32131;53.454;-6.180;2023-07-30T09:38:20;100613.47;;;19.46;58.02
46430;BME280;32131;53.454;-6.180;2023-07-30T09:40:49;100615.00;;;19.55;58.13
46430;BME280;32131;53.454;-6.180;2023-07-30T09:43:18;100615.72;;;19.61;57.80
46430;BME280;32131;53.454;-6.180;2023-07-30T09:45:46;100618.88;;;19.38;58.17
46430;BME280;32131;53.454;-6.180;2023-07-30T09:48:15;100621.69;;;19.30;58.38
46430;BME280;32131;53.454;-6.180;2023-07-30T09:50:45;100617.47;;;19.25;58.77
46430;BME280;32131;53.454;-6.180;2023-07-30T09:53:15;100620.28;;;19.14;59.36
46430;BME280;32131;53.454;-6.180;2023-07-30T09:55:47;100621.00;;;19.22;59.49
46430;BME280;32131;53.454;-6.180;2023-07-30T09:58:16;100620.88;;;19.27;59.65
46430;BME280;32131;53.454;-6.180;2023-07-30T10:00:44;100622.91;;;19.15;60.51
46430;BME280;32131;53.454;-6.180;2023-07-30T10:03:15;100629.41;;;18.96;62.08
46430;BME280;32131;53.454;-6.180;2023-07-30T10:05:47;100623.75;;;18.72;64.26
46430;BME280;32131;53.454;-6.180;2023-07-30T10:08:19;100628.59;;;18.47;66.03
46430;BME280;32131;53.454;-6.180;2023-07-30T10:10:50;100648.91;;;18.34;68.28
46430;BME280;32131;53.454;-6.180;2023-07-30T10:13:22;100657.72;;;18.27;69.90
46430;BME280;32131;53.454;-6.180;2023-07-30T10:15:51;100653.59;;;18.13;71.55
46430;BME280;32131;53.454;-6.180;2023-07-30T10:18:19;100642.47;;;18.02;73.02
46430;BME280;32131;53.454;-6.180;2023-07-30T10:20:53;100655.66;;;17.94;73.31
46430;BME280;32131;53.454;-6.180;2023-07-30T10:23:27;100656.72;;;17.82;74.13
46430;BME280;32131;53.454;-6.180;2023-07-30T10:25:56;100648.91;;;17.79;74.55
46430;BME280;32131;53.454;-6.180;2023-07-30T10:28:31;100649.78;;;17.78;74.73
46430;BME280;32131;53.454;-6.180;2023-07-30T10:31:01;100639.19;;;17.87;74.61
46430;BME280;32131;53.454;-6.180;2023-07-30T10:33:45;100638.13;;;18.02;74.42
46430;BME280;32131;53.454;-6.180;2023-07-30T10:36:30;100631.72;;;18.20;73.84
46430;BME280;32131;53.454;-6.180;2023-07-30T10:39:09;100633.28;;;18.31;73.70
46430;BME280;32131;53.454;-6.180;2023-07-30T10:41:38;100630.38;;;18.46;73.38
46430;BME280;32131;53.454;-6.180;2023-07-30T10:44:18;100639.00;;;18.50;73.17
46430;BME280;32131;53.454;-6.180;2023-07-30T10:46:46;100633.03;;;18.43;72.95
46430;BME280;32131;53.454;-6.180;2023-07-30T10:49:14;100630.41;;;18.43;72.08
46430;BME280;32131;53.454;-6.180;2023-07-30T10:51:44;100634.75;;;18.44;71.36
46430;BME280;32131;53.454;-6.180;2023-07-30T10:54:12;100628.50;;;18.51;70.84
46430;BME280;32131;53.454;-6.180;2023-07-30T10:59:39;100610.78;;;19.10;68.52
46430;BME280;32131;53.454;-6.180;2023-07-30T11:02:10;100620.50;;;19.44;66.90
46430;BME280;32131;53.454;-6.180;2023-07-30T11:04:40;100619.03;;;19.70;65.96
46430;BME280;32131;53.454;-6.180;2023-07-30T11:07:16;100611.28;;;20.01;64.72
46430;BME280;32131;53.454;-6.180;2023-07-30T11:09:45;100620.38;;;20.21;63.22
46430;BME280;32131;53.454;-6.180;2023-07-30T11:12:14;100611.31;;;20.33;62.31
46430;BME280;32131;53.454;-6.180;2023-07-30T11:14:48;100622.31;;;20.46;60.73
46430;BME280;32131;53.454;-6.180;2023-07-30T11:17:18;100616.44;;;20.69;59.62
46430;BME280;32131;53.454;-6.180;2023-07-30T11:19:47;100610.78;;;20.84;59.06
46430;BME280;32131;53.454;-6.180;2023-07-30T11:22:29;100609.28;;;21.05;59.26
46430;BME280;32131;53.454;-6.180;2023-07-30T11:25:00;100604.66;;;21.14;58.21
46430;BME280;32131;53.454;-6.180;2023-07-30T11:27:45;100609.63;;;21.23;58.76
46430;BME280;32131;53.454;-6.180;2023-07-30T11:30:13;100597.19;;;21.28;58.13
46430;BME280;32131;53.454;-6.180;2023-07-30T11:32:42;100603.06;;;21.36;57.21
46430;BME280;32131;53.454;-6.180;2023-07-30T11:35:12;100601.19;;;21.42;57.58
46430;BME280;32131;53.454;-6.180;2023-07-30T11:37:46;100610.94;;;21.36;57.47
46430;BME280;32131;53.454;-6.180;2023-07-30T11:40:38;100603.84;;;21.40;57.25
46430;BME280;32131;53.454;-6.180;2023-07-30T11:46:13;100605.91;;;21.59;56.18
46430;BME280;32131;53.454;-6.180;2023-07-30T11:48:45;100605.22;;;21.79;55.94
46430;BME280;32131;53.454;-6.180;2023-07-30T11:51:40;100600.84;;;21.79;55.08
46430;BME280;32131;53.454;-6.180;2023-07-30T11:54:35;100614.44;;;21.65;55.46
46430;BME280;32131;53.454;-6.180;2023-07-30T11:57:04;100596.63;;;21.47;55.70
46430;BME280;32131;53.454;-6.180;2023-07-30T12:02:49;100598.31;;;21.21;55.94
46430;BME280;32131;53.454;-6.180;2023-07-30T12:05:53;100601.69;;;20.96;56.72
46430;BME280;32131;53.454;-6.180;2023-07-30T12:08:34;100595.34;;;21.03;57.38
46430;BME280;32131;53.454;-6.180;2023-07-30T12:11:33;100600.63;;;21.32;57.30
46430;BME280;32131;53.454;-6.180;2023-07-30T12:14:11;100600.22;;;21.44;56.97
46430;BME280;32131;53.454;-6.180;2023-07-30T12:16:41;100597.03;;;21.34;56.43
46430;BME280;32131;53.454;-6.180;2023-07-30T12:19:09;100600.56;;;21.33;56.75
46430;BME280;32131;53.454;-6.180;2023-07-30T12:21:38;100600.34;;;21.40;56.99
46430;BME280;32131;53.454;-6.180;2023-07-30T12:24:06;100596.22;;;21.32;56.78
46430;BME280;32131;53.454;-6.180;2023-07-30T12:26:36;100596.41;;;21.26;57.62
46430;BME280;32131;53.454;-6.180;2023-07-30T12:29:04;100592.13;;;21.24;58.09
46430;BME280;32131;53.454;-6.180;2023-07-30T12:31:33;100599.66;;;21.34;58.21
46430;BME280;32131;53.454;-6.180;2023-07-30T12:34:01;100605.94;;;21.29;58.62
46430;BME280;32131;53.454;-6.180;2023-07-30T12:36:29;100600.03;;;21.22;58.47
46430;BME280;32131;53.454;-6.180;2023-07-30T12:38:58;100600.56;;;21.33;58.77
46430;BME280;32131;53.454;-6.180;2023-07-30T12:41:26;100602.22;;;21.36;58.61
46430;BME280;32131;53.454;-6.180;2023-07-30T12:43:59;100603.38;;;21.27;58.77
46430;BME280;32131;53.454;-6.180;2023-07-30T12:46:27;100597.53;;;21.19;59.09
46430;BME280;32131;53.454;-6.180;2023-07-30T12:48:57;100603.94;;;21.09;59.23
46430;BME280;32131;53.454;-6.180;2023-07-30T12:51:29;100594.81;;;20.92;59.42
46430;BME280;32131;53.454;-6.180;2023-07-30T12:53:57;100598.63;;;20.82;59.68
46430;BME280;32131;53.454;-6.180;2023-07-30T12:56:28;100597.13;;;20.73;59.22
46430;BME280;32131;53.454;-6.180;2023-07-30T13:24:30;100595.81;;;20.25;65.20
46430;BME280;32131;53.454;-6.180;2023-07-30T13:27:00;100597.06;;;20.10;66.09
46430;BME280;32131;53.454;-6.180;2023-07-30T13:29:28;100594.75;;;19.99;66.67
46430;BME280;32131;53.454;-6.180;2023-07-30T13:31:56;100591.50;;;19.89;67.68
46430;BME280;32131;53.454;-6.180;2023-07-30T13:34:25;100591.53;;;19.88;67.90
46430;BME280;32131;53.454;-6.180;2023-07-30T13:36:53;100586.38;;;19.85;68.46